createdAt,value
2018-03-22T00:02:20.962Z,95188.38
2018-03-22T00:04:48.946Z,95184.22
2018-03-22T00:07:17.345Z,95192.84
2018-03-22T00:09:46.046Z,95197.02
2018-03-22T00:12:14.631Z,95192.34
2018-03-22T00:14:43.210Z,95183.49
2018-03-22T00:17:11.542Z,95189.84
2018-03-22T00:19:40.373Z,95194.23
2018-03-22T00:22:08.753Z,95184.82
2018-03-22T00:24:36.818Z,95186.76
2018-03-22T00:27:04.859Z,95180.01
2018-03-22T00:29:32.819Z,95176.95
2018-03-22T00:32:00.740Z,95173.36
2018-03-22T00:34:28.755Z,95166.69
2018-03-22T00:36:56.741Z,95171.84
2018-03-22T00:39:25.148Z,95155.55
2018-03-22T00:41:53.816Z,95159.98
2018-03-22T00:44:21.788Z,95159.31
2018-03-22T00:46:49.841Z,95148.11
2018-03-22T00:49:17.980Z,95096.03
2018-03-22T00:51:46.009Z,95140.32
2018-03-22T00:54:13.966Z,95135.25
2018-03-22T00:56:41.938Z,95133.98
2018-03-22T00:59:09.947Z,95135.18
2018-03-22T01:01:37.878Z,95118.50
2018-03-22T01:04:05.749Z,95121.55
2018-03-22T01:06:33.680Z,95129.79
2018-03-22T01:09:01.592Z,95129.66
2018-03-22T01:11:29.553Z,95121.08
2018-03-22T01:13:57.477Z,95121.95
2018-03-22T01:16:25.490Z,95106.99
2018-03-22T01:18:53.486Z,95109.87
2018-03-22T01:21:21.478Z,95115.84
2018-03-22T01:23:49.490Z,95101.18
2018-03-22T01:26:17.451Z,95097.70
2018-03-22T01:28:45.394Z,95096.16
2018-03-22T01:31:13.321Z,95102.27
2018-03-22T01:33:41.294Z,95106.86
2018-03-22T01:36:09.342Z,95100.11
2018-03-22T01:38:37.293Z,95096.23
2018-03-22T01:41:05.304Z,95093.64
2018-03-22T01:43:34.269Z,95093.80
2018-03-22T01:46:02.667Z,95095.31
2018-03-22T01:48:31.344Z,95091.05
2018-03-22T01:50:59.344Z,95094.56
2018-03-22T01:53:27.281Z,95089.73
2018-03-22T01:55:55.194Z,95088.84
2018-03-22T01:58:23.171Z,95084.33
2018-03-22T02:00:51.174Z,95081.96
2018-03-22T02:03:19.160Z,95072.16
2018-03-22T02:05:47.151Z,95060.81
2018-03-22T02:08:15.119Z,95065.89
2018-03-22T02:10:43.092Z,95070.91
2018-03-22T02:13:10.981Z,95076.13
2018-03-22T02:15:38.978Z,95083.26
2018-03-22T02:18:06.956Z,95084.46
2018-03-22T02:20:35.238Z,95078.20
2018-03-22T02:23:03.607Z,95080.10
2018-03-22T02:25:32.396Z,95085.03
2018-03-22T02:28:00.361Z,95090.44
2018-03-22T02:30:28.299Z,95088.11
2018-03-22T02:32:56.264Z,95087.77
2018-03-22T02:35:24.358Z,95083.11
2018-03-22T02:37:52.657Z,95078.67
2018-03-22T02:40:20.618Z,95066.75
2018-03-22T02:42:48.677Z,95062.84
2018-03-22T02:45:16.958Z,95059.80
2018-03-22T02:47:44.962Z,95065.98
2018-03-22T02:50:12.893Z,95069.30
2018-03-22T02:52:40.844Z,95079.44
2018-03-22T02:55:09.551Z,95078.40
2018-03-22T02:57:37.737Z,95071.16
2018-03-22T03:00:06.113Z,95065.38
2018-03-22T03:02:34.638Z,95068.78
2018-03-22T03:05:03.376Z,95071.60
2018-03-22T03:07:31.953Z,95068.00
2018-03-22T03:10:00.433Z,95070.14
2018-03-22T03:12:29.163Z,95068.72
2018-03-22T03:14:57.601Z,95060.88
2018-03-22T03:17:26.303Z,95067.22
2018-03-22T03:19:54.852Z,95072.07
2018-03-22T03:22:22.846Z,95072.70
2018-03-22T03:24:50.851Z,95069.37
2018-03-22T03:27:18.818Z,95064.86
2018-03-22T03:29:46.796Z,95062.72
2018-03-22T03:32:14.711Z,95063.64
2018-03-22T03:34:43.393Z,95060.20
2018-03-22T03:37:11.770Z,95064.48
2018-03-22T03:39:39.766Z,95059.19
2018-03-22T03:42:08.221Z,95054.52
2018-03-22T03:44:36.807Z,95050.84
2018-03-22T03:47:05.503Z,95054.91
2018-03-22T03:49:33.977Z,95061.91
2018-03-22T03:52:01.999Z,95064.00
2018-03-22T03:54:29.941Z,95061.69
2018-03-22T03:56:58.401Z,95064.73
2018-03-22T03:59:27.365Z,95056.29
2018-03-22T04:01:55.371Z,95061.44
2018-03-22T04:04:23.378Z,95053.00
2018-03-22T04:06:51.312Z,95063.13
2018-03-22T04:09:19.771Z,95054.47
2018-03-22T04:11:48.273Z,95054.44
2018-03-22T04:14:16.263Z,95052.34
2018-03-22T04:16:44.796Z,95046.68
2018-03-22T04:19:12.816Z,95045.98
2018-03-22T04:21:40.786Z,95046.64
2018-03-22T04:24:08.737Z,95035.25
2018-03-22T04:26:36.689Z,95040.77
2018-03-22T04:29:04.664Z,95042.06
2018-03-22T04:31:33.330Z,95046.46
2018-03-22T04:34:01.330Z,95044.63
2018-03-22T04:36:29.939Z,95046.63
2018-03-22T04:38:57.941Z,95043.77
2018-03-22T04:41:25.910Z,95034.50
2018-03-22T04:43:53.893Z,95038.72
2018-03-22T04:46:21.832Z,95031.26
2018-03-22T04:48:50.247Z,95026.78
2018-03-22T04:51:18.197Z,95022.13
2018-03-22T04:53:46.075Z,95026.14
2018-03-22T04:56:14.048Z,95019.44
2018-03-22T04:58:42.036Z,95025.44
2018-03-22T05:01:10.685Z,95018.13
2018-03-22T05:03:39.265Z,95020.55
2018-03-22T05:06:07.197Z,95014.45
2018-03-22T05:08:35.718Z,95012.47
2018-03-22T05:11:04.301Z,95010.10
2018-03-22T05:13:32.206Z,95001.37
2018-03-22T05:16:00.140Z,95004.14
2018-03-22T05:18:28.070Z,95003.96
2018-03-22T05:20:56.015Z,95010.82
2018-03-22T05:23:23.948Z,95007.33
2018-03-22T05:25:53.069Z,95014.55
2018-03-22T05:28:21.040Z,95016.50
2018-03-22T05:30:49.007Z,95016.14
2018-03-22T05:33:17.139Z,94933.68
2018-03-22T05:35:46.033Z,95009.37
2018-03-22T05:38:14.309Z,94996.49
2018-03-22T05:40:42.281Z,94994.56
2018-03-22T05:43:10.301Z,95000.03
2018-03-22T05:45:38.343Z,94995.41
2018-03-22T05:48:06.301Z,94986.81
2018-03-22T05:50:34.947Z,94997.00
2018-03-22T05:53:03.455Z,94993.09
2018-03-22T05:55:31.936Z,94991.56
2018-03-22T05:57:59.885Z,94979.89
2018-03-22T06:00:27.862Z,94982.99
2018-03-22T06:02:55.820Z,94986.20
2018-03-22T06:05:24.214Z,94986.02
2018-03-22T06:07:52.232Z,94980.34
2018-03-22T06:10:20.126Z,94992.25
2018-03-22T06:12:48.101Z,94989.38
2018-03-22T06:15:16.072Z,94989.60
2018-03-22T06:17:43.990Z,94988.72
2018-03-22T06:20:11.986Z,94993.69
2018-03-22T06:22:39.947Z,94987.75
2018-03-22T06:25:07.972Z,94985.73
2018-03-22T06:27:35.979Z,94989.92
2018-03-22T06:30:04.033Z,94975.80
2018-03-22T06:32:31.973Z,94976.97
2018-03-22T06:34:59.970Z,94977.66
2018-03-22T06:37:27.934Z,94978.36
2018-03-22T06:39:55.926Z,94976.64
2018-03-22T06:42:23.877Z,94975.20
2018-03-22T06:44:51.888Z,94972.63
2018-03-22T06:47:19.842Z,94974.06
2018-03-22T06:49:47.913Z,94966.95
2018-03-22T06:52:16.126Z,94974.42
2018-03-22T06:54:44.061Z,94976.42
2018-03-22T06:57:12.031Z,94969.31
2018-03-22T06:59:39.971Z,94970.16
2018-03-22T07:02:07.954Z,94971.78
2018-03-22T07:04:35.869Z,94983.16
2018-03-22T07:07:03.803Z,94971.84
2018-03-22T07:09:31.759Z,94968.42
2018-03-22T07:11:59.712Z,94956.80
2018-03-22T07:14:27.650Z,94961.17
2018-03-22T07:16:55.666Z,94956.20
2018-03-22T07:19:23.641Z,94956.69
2018-03-22T07:21:51.551Z,94959.73
2018-03-22T07:24:19.528Z,94959.77
2018-03-22T07:26:47.501Z,94962.17
2018-03-22T07:29:15.525Z,94958.27
2018-03-22T07:31:43.483Z,94965.56
2018-03-22T07:34:11.441Z,94965.41
2018-03-22T07:36:39.405Z,94957.71
2018-03-22T07:39:07.417Z,94954.28
2018-03-22T07:41:35.362Z,94954.77
2018-03-22T07:44:08.796Z,94944.95
2018-03-22T07:46:36.732Z,94945.23
2018-03-22T07:49:04.740Z,94943.78
2018-03-22T07:51:32.726Z,94947.60
2018-03-22T07:54:01.286Z,94938.20
2018-03-22T07:56:29.225Z,94925.97
2018-03-22T07:58:57.246Z,94921.09
2018-03-22T08:01:25.191Z,94921.51
2018-03-22T08:03:53.180Z,94928.44
2018-03-22T08:06:21.163Z,94931.63
2018-03-22T08:08:49.133Z,94930.89
2018-03-22T08:11:17.142Z,94935.44
2018-03-22T08:13:45.213Z,94934.91
2018-03-22T08:16:13.309Z,94921.04
2018-03-22T08:18:41.179Z,94908.73
2018-03-22T08:21:09.092Z,94919.90
2018-03-22T08:23:37.134Z,94920.38
2018-03-22T08:26:05.072Z,94915.61
2018-03-22T08:28:33.031Z,94919.00
2018-03-22T08:31:01.052Z,94920.82
2018-03-22T08:33:29.077Z,94912.27
2018-03-22T08:35:57.013Z,94913.80
2018-03-22T08:38:24.949Z,94913.10
2018-03-22T08:40:53.004Z,94917.83
2018-03-22T08:43:20.990Z,94917.02
2018-03-22T08:45:49.046Z,94915.42
2018-03-22T08:48:17.090Z,94910.94
2018-03-22T08:50:45.101Z,94871.64
2018-03-22T08:53:13.069Z,94906.70
2018-03-22T08:55:41.710Z,94905.31
2018-03-22T08:58:09.681Z,94906.01
2018-03-22T09:00:37.678Z,94901.86
2018-03-22T09:03:05.721Z,94899.05
2018-03-22T09:05:33.698Z,94890.89
2018-03-22T09:08:01.715Z,94888.66
2018-03-22T09:10:29.781Z,94888.67
2018-03-22T09:12:57.745Z,94890.52
2018-03-22T09:15:25.757Z,94891.36
2018-03-22T09:17:53.746Z,94882.78
2018-03-22T09:20:22.277Z,94870.66
2018-03-22T09:22:50.228Z,94867.31
2018-03-22T09:25:19.420Z,94865.98
2018-03-22T09:27:47.401Z,94859.09
2018-03-22T09:30:15.365Z,94848.61
2018-03-22T09:32:43.298Z,94842.73
2018-03-22T09:35:11.286Z,94848.94
2018-03-22T09:37:39.238Z,94837.43
2018-03-22T09:40:07.241Z,94834.64
2018-03-22T09:42:35.238Z,94774.63
2018-03-22T09:45:03.414Z,94829.62
2018-03-22T09:47:31.812Z,94837.16
2018-03-22T09:50:00.093Z,94830.40
2018-03-22T09:52:28.773Z,94826.28
2018-03-22T09:54:56.732Z,94816.48
2018-03-22T09:57:25.455Z,94801.73
2018-03-22T09:59:54.119Z,94800.96
2018-03-22T10:02:22.589Z,94802.77
2018-03-22T10:04:50.988Z,94793.41
2018-03-22T10:07:19.553Z,94797.36
2018-03-22T10:09:47.937Z,94803.53
2018-03-22T10:12:16.511Z,94801.03
2018-03-22T10:14:44.997Z,94811.24
2018-03-22T10:17:13.169Z,94808.22
2018-03-22T10:19:41.656Z,94809.33
2018-03-22T10:22:10.037Z,94813.91
2018-03-22T10:24:38.510Z,94819.73
2018-03-22T10:27:07.077Z,94800.70
2018-03-22T10:29:35.673Z,94788.23
2018-03-22T10:32:04.157Z,94789.11
2018-03-22T10:34:32.661Z,94796.77
2018-03-22T10:37:01.216Z,94798.67
2018-03-22T10:39:29.705Z,94800.67
2018-03-22T10:41:57.987Z,94801.34
2018-03-22T10:44:26.062Z,94800.39
2018-03-22T10:46:54.018Z,94797.34
2018-03-22T10:49:21.941Z,94800.78
2018-03-22T10:51:49.935Z,94807.69
2018-03-22T10:54:18.006Z,94795.07
2018-03-22T10:56:46.769Z,94791.41
2018-03-22T10:59:15.738Z,94788.16
2018-03-22T11:01:49.665Z,94773.42
2018-03-22T11:04:18.044Z,94771.30
2018-03-22T11:06:46.773Z,94776.95
2018-03-22T11:09:15.046Z,94773.22
2018-03-22T11:11:43.435Z,94772.21
2018-03-22T11:14:11.892Z,94764.62
2018-03-22T11:16:40.282Z,94774.37
2018-03-22T11:19:08.972Z,94756.05
2018-03-22T11:21:37.253Z,94755.36
2018-03-22T11:24:05.730Z,94750.90
2018-03-22T11:26:34.123Z,94745.41
2018-03-22T11:29:02.095Z,94746.11
2018-03-22T11:31:30.759Z,94742.16
2018-03-22T11:33:59.342Z,94736.48
2018-03-22T11:36:27.817Z,94724.41
2018-03-22T11:38:56.209Z,94721.44
2018-03-22T11:41:24.609Z,94724.52
2018-03-22T11:43:52.666Z,94718.70
2018-03-22T11:46:21.227Z,94716.63
2018-03-22T11:48:49.453Z,94716.67
2018-03-22T11:51:17.990Z,94713.69
2018-03-22T11:53:46.544Z,94716.86
2018-03-22T11:56:15.362Z,94717.00
2018-03-22T11:58:44.046Z,94709.64
2018-03-22T12:01:12.769Z,94701.90
2018-03-22T12:03:41.103Z,94693.94
2018-03-22T12:06:09.890Z,94691.34
2018-03-22T12:08:38.682Z,94683.02
2018-03-22T12:11:07.300Z,94690.03
2018-03-22T12:13:35.641Z,94689.02
2018-03-22T12:16:04.125Z,94693.45
2018-03-22T12:18:32.610Z,94687.27
2018-03-22T12:21:00.606Z,94680.76
2018-03-22T12:23:28.539Z,94667.17
2018-03-22T12:25:57.070Z,94655.48
2018-03-22T12:28:25.706Z,94663.95
2018-03-22T12:30:54.290Z,94669.98
2018-03-22T12:33:22.772Z,94657.16
2018-03-22T12:35:51.560Z,94644.14
2018-03-22T12:38:20.041Z,94635.08
2018-03-22T12:40:48.413Z,94621.45
2018-03-22T12:43:16.413Z,94606.41
2018-03-22T12:45:44.962Z,94600.19
2018-03-22T12:48:13.241Z,94602.04
2018-03-22T12:50:42.030Z,94614.11
2018-03-22T12:53:10.615Z,94612.41
2018-03-22T12:55:39.016Z,94618.31
2018-03-22T12:58:07.574Z,94614.19
2018-03-22T13:00:36.055Z,94604.24
2018-03-22T13:03:04.946Z,94609.62
2018-03-22T13:05:33.466Z,94600.70
2018-03-22T13:08:02.314Z,94597.64
2018-03-22T13:10:30.849Z,94595.55
2018-03-22T13:12:59.331Z,94591.41
2018-03-22T13:15:27.954Z,94594.02
2018-03-22T13:17:56.130Z,94591.88
2018-03-22T13:20:24.392Z,94571.91
2018-03-22T13:22:52.681Z,94592.05
2018-03-22T13:25:21.265Z,94588.61
2018-03-22T13:27:49.540Z,94585.02
2018-03-22T13:30:18.231Z,94573.27
2018-03-22T13:32:46.710Z,94572.45
2018-03-22T13:35:14.987Z,94561.30
2018-03-22T13:37:43.467Z,94563.59
2018-03-22T13:40:11.987Z,94555.31
2018-03-22T13:42:40.742Z,94556.95
2018-03-22T13:45:09.633Z,94546.49
2018-03-22T13:47:37.901Z,94548.32
2018-03-22T13:50:05.861Z,94550.19
2018-03-22T13:52:33.845Z,94549.08
2018-03-22T13:55:01.836Z,94544.95
2018-03-22T13:57:29.810Z,94543.97
2018-03-22T13:59:57.849Z,94533.39
2018-03-22T14:02:25.806Z,94535.87
2018-03-22T14:04:54.085Z,94536.08
2018-03-22T14:07:22.133Z,94543.33
2018-03-22T14:09:50.114Z,94544.19
2018-03-22T14:12:18.064Z,94557.01
2018-03-22T14:14:46.062Z,94546.72
2018-03-22T14:17:14.081Z,94539.10
2018-03-22T14:19:41.996Z,94539.06
2018-03-22T14:22:09.909Z,94532.67
2018-03-22T14:24:38.285Z,94530.13
2018-03-22T14:27:06.250Z,94512.52
2018-03-22T14:29:34.700Z,94514.00
2018-03-22T14:32:02.649Z,94509.19
2018-03-22T14:34:30.576Z,94516.58
2018-03-22T14:36:58.570Z,94502.84
2018-03-22T14:39:26.530Z,94474.17
2018-03-22T14:41:54.542Z,94482.64
2018-03-22T14:44:22.589Z,94489.41
2018-03-22T14:46:50.619Z,94487.14
2018-03-22T14:49:18.589Z,94483.78
2018-03-22T14:51:46.714Z,94480.79
2018-03-22T14:54:14.618Z,94484.47
2018-03-22T14:56:42.634Z,94486.73
2018-03-22T14:59:10.638Z,94479.73
2018-03-22T15:01:38.637Z,94483.00
2018-03-22T15:04:06.573Z,94482.31
2018-03-22T15:06:34.714Z,94473.34
2018-03-22T15:09:02.689Z,94478.70
2018-03-22T15:11:30.595Z,94470.14
2018-03-22T15:13:58.590Z,94453.13
2018-03-22T15:16:26.587Z,94451.84
2018-03-22T15:18:54.538Z,94464.77
2018-03-22T15:21:22.496Z,94474.73
2018-03-22T15:23:50.450Z,94486.09
2018-03-22T15:26:18.434Z,94482.73
2018-03-22T15:28:46.458Z,94486.45
2018-03-22T15:31:14.445Z,94477.78
2018-03-22T15:33:42.425Z,94489.27
2018-03-22T15:36:10.451Z,94472.71
2018-03-22T15:38:38.397Z,94473.38
2018-03-22T15:41:06.318Z,94468.92
2018-03-22T15:43:34.322Z,94471.79
2018-03-22T15:46:02.302Z,94485.55
2018-03-22T15:48:30.299Z,94498.95
2018-03-22T15:50:58.254Z,94492.81
2018-03-22T15:53:26.306Z,94489.03
2018-03-22T15:55:54.216Z,94478.14
2018-03-22T15:58:22.192Z,94476.88
2018-03-22T16:00:50.154Z,94485.53
2018-03-22T16:03:17.950Z,94482.38
2018-03-22T16:05:45.935Z,94476.70
2018-03-22T16:08:14.242Z,94475.23
2018-03-22T16:10:42.103Z,94476.13
2018-03-22T16:13:10.066Z,94474.33
2018-03-22T16:15:37.978Z,94461.52
2018-03-22T16:18:05.960Z,94466.03
2018-03-22T16:20:33.990Z,94469.88
2018-03-22T16:23:02.038Z,94483.87
2018-03-22T16:25:29.978Z,94470.62
2018-03-22T16:27:57.922Z,94463.91
2018-03-22T16:30:25.901Z,94454.62
2018-03-22T16:32:53.985Z,94443.33
2018-03-22T16:35:21.939Z,94450.23
2018-03-22T16:37:49.969Z,94446.31
2018-03-22T16:40:17.910Z,94436.42
2018-03-22T16:42:45.890Z,94437.17
2018-03-22T16:45:13.861Z,94430.42
2018-03-22T16:47:41.877Z,94428.84
2018-03-22T16:50:09.801Z,94416.88
2018-03-22T16:52:37.775Z,94427.34
2018-03-22T16:55:05.757Z,94431.97
2018-03-22T16:57:33.747Z,94429.67
2018-03-22T17:00:01.913Z,94427.52
2018-03-22T17:02:30.036Z,94431.27
2018-03-22T17:04:58.044Z,94445.22
2018-03-22T17:07:25.986Z,94440.45
2018-03-22T17:09:54.036Z,94443.34
2018-03-22T17:12:22.026Z,94462.13
2018-03-22T17:14:50.029Z,94462.76
2018-03-22T17:17:17.981Z,94451.75
2018-03-22T17:19:45.970Z,94442.47
2018-03-22T17:22:14.011Z,94436.02
2018-03-22T17:24:41.969Z,94428.85
2018-03-22T17:27:09.913Z,94423.80
2018-03-22T17:29:37.917Z,94426.55
2018-03-22T17:32:05.917Z,94420.92
2018-03-22T17:34:33.931Z,94412.48
2018-03-22T17:37:01.925Z,94413.75
2018-03-22T17:39:29.890Z,94397.10
2018-03-22T17:41:57.846Z,94393.47
2018-03-22T17:44:25.853Z,94372.05
2018-03-22T17:46:53.818Z,94374.10
2018-03-22T17:49:21.828Z,94369.48
2018-03-22T17:51:49.833Z,94368.44
2018-03-22T17:54:17.861Z,94375.94
2018-03-22T17:56:45.818Z,94376.55
2018-03-22T17:59:13.777Z,94370.06
2018-03-22T18:01:41.738Z,94369.13
2018-03-22T18:04:09.623Z,94373.11
2018-03-22T18:06:37.589Z,94366.70
2018-03-22T18:09:05.693Z,94365.53
2018-03-22T18:11:34.006Z,94371.25
2018-03-22T18:14:02.013Z,94386.55
2018-03-22T18:16:30.018Z,94407.28
2018-03-22T18:18:57.926Z,94426.70
2018-03-22T18:21:25.863Z,94433.09
2018-03-22T18:23:53.860Z,94442.46
2018-03-22T18:26:21.882Z,94435.91
2018-03-22T18:28:49.942Z,94435.09
2018-03-22T18:31:17.930Z,94431.23
2018-03-22T18:33:45.818Z,94413.33
2018-03-22T18:36:13.796Z,94396.16
2018-03-22T18:38:41.833Z,94374.16
2018-03-22T18:41:09.819Z,94366.80
2018-03-22T18:43:38.219Z,94364.20
2018-03-22T18:46:06.326Z,94356.30
2018-03-22T18:48:34.358Z,94344.95
2018-03-22T18:51:02.317Z,94329.66
2018-03-22T18:53:30.247Z,94314.80
2018-03-22T18:55:58.183Z,94302.03
2018-03-22T18:58:26.146Z,94299.37
2018-03-22T19:00:53.936Z,94290.83
2018-03-22T19:03:21.904Z,94284.17
2018-03-22T19:05:49.886Z,94268.78
2018-03-22T19:08:17.906Z,94279.03
2018-03-22T19:10:45.842Z,94275.06
2018-03-22T19:13:14.098Z,94267.28
2018-03-22T19:15:42.083Z,94259.22
2018-03-22T19:18:10.033Z,94255.57
2018-03-22T19:20:37.986Z,94235.56
2018-03-22T19:23:05.934Z,94270.37
2018-03-22T19:25:33.942Z,94270.45
2018-03-22T19:28:01.992Z,94248.85
2018-03-22T19:30:29.942Z,94253.34
2018-03-22T19:32:58.031Z,94249.83
2018-03-22T19:35:26.045Z,94250.70
2018-03-22T19:37:53.996Z,94247.62
2018-03-22T19:40:21.908Z,94244.00
2018-03-22T19:42:49.941Z,94240.10
2018-03-22T19:45:17.838Z,94226.36
2018-03-22T19:47:45.851Z,94220.05
2018-03-22T19:50:13.839Z,94212.05
2018-03-22T19:52:41.825Z,94202.20
2018-03-22T19:55:09.800Z,94218.58
2018-03-22T19:57:37.735Z,94207.77
2018-03-22T20:00:05.763Z,94209.44
2018-03-22T20:02:33.769Z,94210.31
2018-03-22T20:05:01.722Z,94210.87
2018-03-22T20:07:29.707Z,94203.39
2018-03-22T20:09:57.778Z,94206.48
2018-03-22T20:12:25.870Z,94215.17
2018-03-22T20:14:54.195Z,94212.27
2018-03-22T20:17:22.180Z,94228.22
2018-03-22T20:19:50.168Z,94222.73
2018-03-22T20:22:18.141Z,94227.48
2018-03-22T20:24:46.122Z,94225.72
2018-03-22T20:27:14.144Z,94220.31
2018-03-22T20:29:42.025Z,94212.92
2018-03-22T20:32:10.038Z,94202.69
2018-03-22T20:34:38.025Z,94184.48
2018-03-22T20:37:05.970Z,94169.72
2018-03-22T20:39:34.041Z,94155.84
2018-03-22T20:42:02.005Z,94155.37
2018-03-22T20:44:29.941Z,94161.28
2018-03-22T20:46:57.840Z,94143.16
2018-03-22T20:49:25.804Z,94142.38
2018-03-22T20:51:53.756Z,94150.77
2018-03-22T20:54:21.781Z,94144.70
2018-03-22T20:56:49.769Z,94135.37
2018-03-22T20:59:17.730Z,94130.88
2018-03-22T21:01:45.646Z,94113.05
2018-03-22T21:04:13.609Z,94110.01
2018-03-22T21:06:41.590Z,94095.06
2018-03-22T21:09:09.565Z,94093.01
2018-03-22T21:11:37.473Z,94098.75
2018-03-22T21:14:05.431Z,94100.25
2018-03-22T21:16:33.605Z,94101.37
2018-03-22T21:19:01.523Z,94081.27
2018-03-22T21:21:29.502Z,94064.63
2018-03-22T21:23:57.510Z,94051.28
2018-03-22T21:26:25.441Z,94050.83
2018-03-22T21:28:53.389Z,94036.02
2018-03-22T21:31:21.372Z,94060.87
2018-03-22T21:33:49.352Z,94065.63
2018-03-22T21:36:17.402Z,94062.13
2018-03-22T21:38:45.407Z,94048.48
2018-03-22T21:41:13.392Z,94035.63
2018-03-22T21:46:47.310Z,94013.25
2018-03-22T21:49:15.281Z,94005.84
2018-03-22T21:51:49.014Z,94012.23
2018-03-22T21:54:17.007Z,94015.50
2018-03-22T21:56:44.929Z,94007.35
2018-03-22T21:59:12.917Z,93997.79
2018-03-22T22:01:40.865Z,93965.88
2018-03-22T22:04:08.805Z,93966.41
2018-03-22T22:06:36.785Z,93966.58
2018-03-22T22:09:04.867Z,93956.29
2018-03-22T22:11:32.817Z,93956.69
2018-03-22T22:14:00.704Z,93955.66
2018-03-22T22:16:28.661Z,93956.86
2018-03-22T22:18:57.027Z,93939.84
2018-03-22T22:21:24.915Z,93926.87
2018-03-22T22:23:53.628Z,93904.26
2018-03-22T22:26:21.547Z,93907.42
2018-03-22T22:28:49.513Z,93883.41
2018-03-22T22:31:17.465Z,93876.08
2018-03-22T22:33:45.474Z,93868.52
2018-03-22T22:36:13.470Z,93842.72
2018-03-22T22:38:41.444Z,93825.77
2018-03-22T22:41:09.407Z,93850.89
2018-03-22T22:43:37.367Z,93885.00
2018-03-22T22:46:05.342Z,93900.80
2018-03-22T22:48:33.319Z,93878.15
2018-03-22T22:51:01.322Z,93862.30
2018-03-22T22:53:29.270Z,93861.09
2018-03-22T22:55:57.199Z,93900.59
2018-03-22T22:58:25.182Z,93897.74
2018-03-22T23:00:53.202Z,93870.61
2018-03-22T23:03:21.230Z,93859.21
2018-03-22T23:05:49.163Z,93838.22
2018-03-22T23:08:17.145Z,93830.40
2018-03-22T23:10:45.080Z,93877.75
2018-03-22T23:13:13.073Z,93930.97
2018-03-22T23:15:40.945Z,93929.61
2018-03-22T23:18:08.885Z,93908.84
2018-03-22T23:20:37.356Z,93883.30
2018-03-22T23:23:05.381Z,93900.52
2018-03-22T23:25:33.330Z,93905.65
2018-03-22T23:28:01.260Z,93921.30
2018-03-22T23:30:29.229Z,93930.59
2018-03-22T23:32:57.266Z,93885.06
2018-03-22T23:35:25.231Z,93865.16
2018-03-22T23:37:53.198Z,93857.05
2018-03-22T23:40:21.205Z,93877.59
2018-03-22T23:42:49.201Z,93903.28
2018-03-22T23:45:17.120Z,93805.59
2018-03-22T23:47:45.038Z,93907.05
2018-03-22T23:50:12.974Z,93910.99
2018-03-22T23:52:40.917Z,93913.14
2018-03-22T23:55:08.888Z,93912.17
2018-03-22T23:57:36.854Z,93889.80
